Aeroporto :
LOGIN :

Iscrizione | Disclaimer

   EN    FR    IT 

 










Sommario :    VFR   VFR Marginale   IFR   IFR Intensivo   IFR Molto Intensivo
Visibilità : 
Base nubi : 
>= 8 km
>= 3000ft
5 / 8 km
1000 / 3000 ft
1500m / 5 km
500 / 1000 ft
800 / 1500m
200 / 500 ft
< 800m
< 200 ft
Simboli :   Temporali  Nebbia  Neve Forte  Precipitazioni Forti  Vento > 20 kt
SIGMETs :   Varie  Temporali  Ghiacco  Turbolenza  Onda orograficha  Ceneri Vulcaniche






- Altitudine del aeroporto : 1895 ft


LSMM - Meiringen

ULTIMO METAR :
  • 041920Z 06010KT 030V100 8000 -RA FEW033 SCT065 OVC098 10/08 Q1001 RMK BLU

METARs OBSOLETI :
  • 041850Z 06008KT 030V100 7000 -RA SCT015 OVC047 10/09 Q1001 RMK WHT
  • 041820Z 05008KT 6000 RA SCT023 OVC044 10/08 Q1001 RMK WHT
  • 041750Z 06005KT 030V100 6000 RA FEW011 BKN037 OVC049 11/10 Q1001 RMK WHT
  • 041720Z VRB01KT 5000 RA FEW006 SCT032 OVC041 12/11 Q1001 RMK WHT
  • 041650Z VRB01KT 3500 RA FEW007 BKN030 OVC040 12/11 Q1000 RMK YLO

Previsioni scadute.



MetMap, La meteo Aeronautica in un colpo d'occhio ! - Copyright ORBIFLY Dicembre 2007 - Disclaimer

ORBIFLY MET'MAP TEAM :

Programmazione e sviluppo : Alexandra Zaïnal
Concezione : Baudouin d'Aumeries
Aiuto per la programmazione : Marc-Olivier Méhu
Supporto tecnico e logistico : Manuel Goepfert
Aiuto per la traduzione : Arnaldo La Scala

Contatto : metmap@orbifly.com




FONTI E CREDITI :

   NOAA